• Join FlightAware (Why Join?)
  • Login
  • US Flag 
07:15AM EDT


 

Airport Tracker/Info


-or-


 

Live Flight TrackerFlight Track Log ✈ EJA831 ✈ 27-Sep-2013 ✈ KOTH - KSMO

Flight Track Log - Related Links

Times and Time Zones

All times are in EDT time to prevent confusion due to time zone crossing. See the EJA831 flight status page for this flight to view local times or setup timezone preferences in your user account.

Time Position Orientation Groundspeed Altitude Reporting Facility
EDT Latitude Longitude Course Direction KTS MPH feet Rate Location/Type
07:37PM 43.4225 -124.3019 177° South 209 241 3,400  Level Seattle Center
07:38PM 43.4583 -124.2503 46° Northeast 215 247 7,900 4,200 Climbing Seattle Center
07:39PM 43.4211 -124.1714 123° Southeast 249 287 12,000 3,000 Climbing Seattle Center
07:40PM 43.3889 -124.0817 116° Southeast 254 292 14,000 2,820 Climbing Seattle Center
07:41PM 42.8398 -123.8369 176° South  Level Estimated
07:41PM 43.3542 -123.9544 111° Southeast 310 357 17,800  Level Seattle Center
07:42PM 42.7434 -123.7693 175° South  Level Estimated
07:42PM 43.3197 -123.8392 112° Southeast 322 371 19,700  Level Seattle Center
07:43PM 42.6470 -123.7019 177° South  Level Estimated
07:43PM 43.2297 -123.7850 156° South 363 418 21,600  Level Seattle Center
07:44PM 43.1256 -123.7636 171° South 375 432 23,500 1,860 Climbing Seattle Center
07:45PM 43.0181 -123.7419 172° South 386 444 25,400 2,040 Climbing Seattle Center
07:46PM 42.8889 -123.7164 172° South 390 449 27,700 1,920 Climbing Seattle Center
07:47PM 42.7800 -123.6969 173° South 395 455 29,400 1,380 Climbing Seattle Center
07:48PM 42.6683 -123.6753 172° South 405 466 30,600 1,080 Climbing Seattle Center
07:49PM 42.5511 -123.6536 172° South 420 483 31,600 1,020 Climbing Seattle Center
07:50PM 42.4289 -123.6297 172° South 440 506 32,700 960 Climbing Seattle Center
07:51PM 42.3050 -123.6078 173° South 450 518 33,600 900 Climbing Seattle Center
07:52PM 42.1786 -123.5847 172° South 457 526 34,600 660 Climbing Seattle Center
07:53PM 42.0511 -123.5608 172° South 463 533 35,000 180 Climbing Seattle Center
07:54PM 41.9178 -123.5353 172° South 480 552 35,000  Level Seattle Center
07:55PM 41.7839 -123.5108 172° South 488 562 35,000  Level Seattle Center
07:57PM 41.6242 -123.4800 172° South 486 559 35,000  Level Seattle Center
07:58PM 41.4936 -123.4581 173° South 479 551 35,000  Level Seattle Center
07:59PM 41.3758 -123.4386 173° South 484 557 35,000  Level Seattle Center
08:00PM 41.2511 -123.3694 157° South 483 556 35,000  Level Seattle Center
08:01PM 41.1064 -123.2739 154° Southeast 482 555 35,000  Level Seattle Center
08:02PM 40.9858 -123.1961 154° Southeast 482 555 35,000  Level Seattle Center
08:03PM 40.8658 -123.1153 153° Southeast 483 556 35,000  Level Seattle Center
08:04PM 40.7497 -123.0419 154° Southeast 481 554 35,000  Level Oakland Center
08:05PM 40.6306 -122.9644 154° Southeast 480 552 35,000  Level Oakland Center
08:06PM 40.5111 -122.8881 154° Southeast 480 552 35,000  Level Oakland Center
08:07PM 40.3925 -122.8117 154° Southeast 478 550 35,000  Level Oakland Center
08:08PM 40.2753 -122.7369 154° Southeast 474 545 35,000  Level Oakland Center
08:09PM 40.1386 -122.6486 154° Southeast 465 535 35,000  Level Oakland Center
08:10PM 40.0244 -122.5786 155° Southeast 461 531 35,000  Level Oakland Center
08:11PM 39.9117 -122.5061 154° Southeast 460 529 35,000  Level Oakland Center
08:12PM 39.7983 -122.4325 153° Southeast 460 529 35,000  Level Oakland Center
08:13PM 39.6836 -122.3611 154° Southeast 460 529 35,000  Level Oakland Center
08:14PM 39.5689 -122.2894 154° Southeast 460 529 35,000  Level Oakland Center
08:15PM 39.4461 -122.2119 154° Southeast 461 531 35,000  Level Oakland Center
08:16PM 39.3306 -122.1411 155° Southeast 460 529 35,000  Level Oakland Center
08:17PM 39.2147 -122.0689 154° Southeast 461 531 35,000  Level Oakland Center
08:18PM 39.0767 -121.9844 155° Southeast 460 529 35,000  Level Oakland Center
08:19PM 38.9622 -121.9136 154° Southeast 457 526 35,000  Level Oakland Center
08:20PM 38.8475 -121.8428 154° Southeast 458 527 35,000  Level Oakland Center
08:21PM 38.7311 -121.7725 155° Southeast 463 533 35,000  Level Oakland Center
08:22PM 38.6169 -121.7036 155° Southeast 458 527 35,000  Level Oakland Center
08:23PM 38.5022 -121.6339 155° Southeast 462 532 35,000  Level Oakland Center
08:24PM 38.3892 -121.5644 154° Southeast 465 535 35,000  Level Oakland Center
08:25PM 38.2486 -121.4817 155° Southeast 465 535 35,000  Level Oakland Center
08:26PM 38.1333 -121.4125 155° Southeast 462 532 35,000  Level Oakland Center
08:27PM 38.0178 -121.3428 155° Southeast 462 532 35,000  Level Oakland Center
08:28PM 37.9019 -121.2744 155° Southeast 461 531 35,000  Level Oakland Center
08:29PM 37.7864 -121.2058 155° Southeast 461 531 35,000  Level Oakland Center
08:30PM 37.6711 -121.1383 155° Southeast 458 527 35,000  Level Oakland Center
08:31PM 37.5564 -121.0706 155° Southeast 454 522 35,000  Level Oakland Center
08:32PM 37.4194 -120.9853 154° Southeast 458 527 35,000  Level Oakland Center
08:33PM 37.3050 -120.9106 153° Southeast 462 532 35,000  Level Oakland Center
08:34PM 37.1906 -120.8378 153° Southeast 461 531 35,000 -420 Level Oakland Center
08:35PM 37.0756 -120.7658 153° Southeast 463 533 34,200 -900 Descending Oakland Center
08:36PM 36.9614 -120.6947 154° Southeast 459 528 33,200 -600 Descending Oakland Center
08:37PM 36.8458 -120.6211 153° Southeast 465 535 33,000 -120 Descending Oakland Center
08:38PM 36.7267 -120.5472 154° Southeast 469 540 33,000  Level Oakland Center
08:39PM 36.6106 -120.4728 153° Southeast 470 541 33,000  Level Oakland Center
08:40PM 36.4953 -120.4008 153° Southeast 465 535 33,000  Level Oakland Center
08:42PM 36.3803 -120.3294 153° Southeast 462 532 33,000  Level Oakland Center
08:43PM 36.2433 -120.2444 153° Southeast 460 529 33,000  Level Oakland Center
08:44PM 36.1297 -120.1742 153° Southeast 457 526 33,000  Level Oakland Center
08:45PM 36.0147 -120.1031 153° Southeast 459 528 33,000  Level Oakland Center
08:46PM 35.9008 -120.0328 153° Southeast 456 525 33,000  Level Oakland Center
08:47PM 35.7858 -119.9628 154° Southeast 457 526 33,000  Level Oakland Center
08:48PM 35.6719 -119.8933 154° Southeast 455 524 33,000  Level Oakland Center
08:49PM 35.5581 -119.8239 154° Southeast 454 522 33,000 -60 Level Oakland Center
08:50PM 35.4456 -119.7544 153° Southeast 451 519 32,900 -1,020 Descending Los Angeles Center
08:51PM 35.3311 -119.6858 154° Southeast 453 521 31,000 -1,920 Descending Los Angeles Center
08:52PM 35.2228 -119.6131 151° Southeast 447 514 29,000 -1,980 Descending Los Angeles Center
08:53PM 35.1206 -119.5250 145° Southeast 451 519 27,000 -2,160 Descending Los Angeles Center
08:54PM 34.9956 -119.4189 145° Southeast 452 520 24,600 -2,160 Descending Los Angeles Center
08:55PM 34.8958 -119.3350 145° Southeast 443 510 22,600 -2,040 Descending Los Angeles Center
08:56PM 34.7994 -119.2533 145° Southeast 428 493 20,500 -2,400 Descending Los Angeles Center
08:57PM 34.7103 -119.1792 146° Southeast 391 450 17,700 -2,520 Descending Los Angeles Center
08:58PM 34.6350 -119.1150 145° Southeast 355 409 15,400 -2,520 Descending Los Angeles Center
08:59PM 34.5414 -119.0383 146° Southeast 337 388 12,500 -2,460 Descending Los Angeles Center
09:00PM 34.4697 -118.9758 144° Southeast 318 366 10,400 -1,980 Descending Los Angeles Center
09:01PM 34.4047 -118.9192 144° Southeast 289 333 8,500 -1,380 Descending Los Angeles Center
09:02PM 34.3478 -118.8572 138° Southeast 277 319 7,600 -780 Descending Los Angeles Center
09:03PM 34.3200 -118.7736 112° Southeast 266 306 7,000 -300 Descending Los Angeles Center
09:04PM 34.2933 -118.6944 112° Southeast 257 296 7,000  Level Los Angeles Center
09:05PM 34.2667 -118.6000 109° East 264 304 7,000  Level Southern California TRACON
09:06PM 34.2333 -118.5333 121° Southeast 266 306 7,000 -720 Level Southern California TRACON
09:07PM 34.2167 -118.4500 104° East 251 289 5,600 -1,440 Descending Southern California TRACON
09:08PM 34.1833 -118.3667 116° Southeast 231 266 4,200 -960 Descending Southern California TRACON
09:09PM 34.1333 -118.3333 151° Southeast 229 264 3,700 -720 Descending Southern California TRACON
09:10PM 34.0833 -118.3667 209° Southwest 176 203 2,800 -900 Descending Southern California TRACON
09:11PM 34.0500 -118.4000 220° Southwest 151 174 1,900 -1,080 Descending Southern California TRACON
09:12PM 34.0333 -118.4333 239° Southwest 122 140 700 -780 Descending Southern California TRACON
09:13PM 34.0075 -118.4667 227° Southwest 134 154 100 -480 Descending Los Angeles Center
09:15PM 34.0000 -118.4500 90° East  Level FlightAware Approximate
09:22PM 34.0158 -118.4513 90° East  Level Estimated